createdAt,value
2018-04-30T04:46:34.855Z,10
2018-04-30T04:48:02.184Z,10
2018-04-30T04:50:21.091Z,15
2018-04-30T04:50:43.171Z,15
2018-04-30T04:51:04.795Z,15
2018-04-30T04:53:55.904Z,15
2018-04-30T04:54:16.431Z,15
2018-04-30T04:55:39.429Z,15
2018-04-30T04:56:48.484Z,20
2018-04-30T04:57:08.540Z,20
2018-04-30T04:57:28.752Z,20
2018-04-30T04:57:48.988Z,20
2018-04-30T04:58:09.351Z,20
2018-04-30T04:58:30.238Z,20
2018-04-30T04:58:51.252Z,20
2018-04-30T05:11:15.275Z,15
2018-04-30T05:12:52.121Z,15
2018-04-30T05:15:19.464Z,15
2018-04-30T05:16:55.396Z,15
2018-04-30T05:17:52.867Z,15
2018-04-30T05:18:14.157Z,15
2018-04-30T05:19:01.484Z,20
2018-04-30T05:20:00.843Z,20
2018-04-30T05:20:21.268Z,20
2018-04-30T05:20:41.746Z,20
2018-04-30T05:21:02.367Z,20
2018-04-30T05:21:22.921Z,20
2018-04-30T05:21:44.192Z,20
2018-04-30T05:22:04.868Z,20
2018-04-30T05:22:26.237Z,20
2018-04-30T05:22:48.191Z,20
2018-04-30T05:23:09.005Z,20
2018-04-30T05:23:29.560Z,20
2018-04-30T05:23:51.813Z,20
2018-04-30T05:24:12.350Z,25
2018-04-30T05:24:33.849Z,25
2018-04-30T05:24:55.232Z,25
2018-04-30T05:25:16.778Z,25
2018-04-30T05:25:37.542Z,25
2018-04-30T05:25:58.371Z,25
2018-04-30T05:26:19.071Z,25
2018-04-30T05:26:39.749Z,25
2018-04-30T05:27:00.371Z,25
2018-04-30T05:27:21.972Z,25
2018-04-30T05:27:42.569Z,25
2018-04-30T05:28:03.017Z,25
2018-04-30T05:28:26.354Z,25
2018-04-30T05:28:47.102Z,25
2018-04-30T05:29:07.611Z,25
2018-04-30T05:29:29.028Z,25
2018-04-30T05:29:49.578Z,20
2018-04-30T05:30:10.793Z,20
2018-04-30T05:30:31.575Z,20
2018-04-30T05:30:52.870Z,20
2018-04-30T05:31:13.626Z,20
2018-04-30T05:31:34.455Z,20
2018-04-30T05:31:55.199Z,20
2018-04-30T05:32:16.096Z,20
2018-04-30T05:32:37.199Z,20
2018-04-30T05:32:58.530Z,20
2018-04-30T05:33:18.991Z,20
2018-04-30T05:33:39.659Z,20
2018-04-30T05:34:01.345Z,20
2018-04-30T05:34:22.235Z,20
2018-04-30T05:34:42.801Z,20
2018-04-30T05:35:03.982Z,25
2018-04-30T05:35:25.904Z,25
2018-04-30T05:35:46.748Z,25
2018-04-30T05:36:08.029Z,25
2018-04-30T05:36:28.683Z,25
2018-04-30T05:36:49.590Z,25
2018-04-30T05:37:10.151Z,25
2018-04-30T05:37:31.678Z,25
2018-04-30T05:37:53.078Z,25
2018-04-30T05:38:14.515Z,25
2018-04-30T05:38:35.120Z,25
2018-04-30T05:38:56.289Z,25
2018-04-30T05:39:17.801Z,25
2018-04-30T05:39:38.494Z,25
2018-04-30T05:40:00.324Z,25
2018-04-30T05:40:23.507Z,25
2018-04-30T05:40:45.365Z,25
2018-04-30T05:41:05.872Z,25
2018-04-30T05:41:27.935Z,25
2018-04-30T05:41:48.661Z,25
2018-04-30T05:42:09.514Z,25
2018-04-30T05:42:30.029Z,25
2018-04-30T05:42:50.479Z,25
2018-04-30T05:43:10.963Z,25
2018-04-30T05:43:31.874Z,25
2018-04-30T05:43:52.521Z,25
2018-04-30T05:44:13.199Z,25
2018-04-30T05:44:34.347Z,25
2018-04-30T05:44:54.786Z,25
2018-04-30T05:45:16.283Z,25
2018-04-30T05:45:36.531Z,25
2018-04-30T05:45:57.273Z,25
2018-04-30T05:46:17.768Z,25
2018-04-30T05:46:38.454Z,25
2018-04-30T05:46:59.044Z,25
2018-04-30T05:47:19.759Z,25
2018-04-30T05:47:40.408Z,25
2018-04-30T05:48:01.873Z,25
2018-04-30T05:48:23.428Z,25
2018-04-30T05:48:43.883Z,25
2018-04-30T05:49:04.309Z,25
2018-04-30T05:49:24.935Z,25
2018-04-30T05:49:47.224Z,25
2018-04-30T05:50:08.042Z,25
2018-04-30T05:50:29.250Z,30
2018-04-30T05:50:49.567Z,30
2018-04-30T05:51:10.063Z,30
2018-04-30T05:51:30.593Z,30
2018-04-30T05:51:51.051Z,30
2018-04-30T05:52:11.621Z,30
2018-04-30T05:52:31.969Z,30
2018-04-30T05:52:52.568Z,30
2018-04-30T05:53:13.416Z,30
2018-04-30T05:53:34.010Z,30
2018-04-30T05:53:54.438Z,30
2018-04-30T05:54:15.038Z,30
2018-04-30T05:54:35.521Z,30
2018-04-30T05:54:56.112Z,30
2018-04-30T05:55:16.775Z,30
2018-04-30T05:55:37.830Z,30
2018-04-30T05:55:58.327Z,30
2018-04-30T05:56:19.032Z,35
2018-04-30T05:56:39.540Z,35
2018-04-30T05:57:01.232Z,35
2018-04-30T05:57:22.033Z,35
2018-04-30T05:57:43.802Z,35
2018-04-30T05:58:04.448Z,35
2018-04-30T05:58:26.219Z,35
2018-04-30T05:58:46.739Z,35
2018-04-30T05:59:07.594Z,35
2018-04-30T05:59:28.828Z,35
2018-04-30T05:59:51.026Z,35
2018-04-30T06:00:11.933Z,35
2018-04-30T06:00:33.157Z,35
2018-04-30T06:00:54.291Z,35
2018-04-30T06:01:15.210Z,35
2018-04-30T06:01:36.173Z,35
2018-04-30T06:01:57.837Z,35
2018-04-30T06:02:19.342Z,35
2018-04-30T06:02:40.035Z,35
2018-04-30T06:03:02.345Z,35
2018-04-30T06:03:23.681Z,30
2018-04-30T06:03:44.299Z,30
2018-04-30T06:04:05.271Z,30
2018-04-30T06:04:25.723Z,30
2018-04-30T06:05:06.307Z,30
2018-04-30T06:05:27.714Z,30
2018-04-30T06:05:48.144Z,30
2018-04-30T06:06:08.763Z,30
2018-04-30T06:06:29.446Z,30
2018-04-30T06:06:50.102Z,30
2018-04-30T06:07:11.544Z,30
2018-04-30T06:07:31.979Z,30
2018-04-30T06:07:52.313Z,30
2018-04-30T06:08:12.802Z,30
2018-04-30T06:08:33.286Z,30
2018-04-30T06:08:53.935Z,30
2018-04-30T06:09:14.897Z,30
2018-04-30T06:09:35.390Z,30
2018-04-30T06:09:56.013Z,30
2018-04-30T06:10:16.460Z,30
2018-04-30T06:10:37.800Z,30
2018-04-30T06:10:59.337Z,30
2018-04-30T06:11:20.012Z,30
2018-04-30T06:11:40.705Z,30
2018-04-30T06:12:02.349Z,30
2018-04-30T06:12:23.037Z,30
2018-04-30T06:12:43.804Z,30
2018-04-30T06:13:04.381Z,30
2018-04-30T06:13:25.798Z,30
2018-04-30T06:13:46.191Z,30
2018-04-30T06:14:06.769Z,30
2018-04-30T06:14:28.301Z,30
2018-04-30T06:14:49.976Z,30
2018-04-30T06:15:10.744Z,35
2018-04-30T06:15:32.877Z,35
2018-04-30T06:15:53.319Z,35
2018-04-30T06:16:14.690Z,35
2018-04-30T06:16:35.088Z,35
2018-04-30T06:16:56.285Z,35
2018-04-30T06:17:17.854Z,35
2018-04-30T06:17:38.547Z,35
2018-04-30T06:17:59.232Z,35
2018-04-30T06:18:20.037Z,30
2018-04-30T06:18:41.300Z,30
2018-04-30T06:19:01.844Z,30
2018-04-30T06:19:22.548Z,30
2018-04-30T06:19:43.360Z,30
2018-04-30T06:20:04.040Z,30
2018-04-30T06:20:24.731Z,30
2018-04-30T06:20:45.903Z,30
2018-04-30T06:21:06.835Z,30
2018-04-30T06:21:27.624Z,30
2018-04-30T06:21:48.765Z,30
2018-04-30T06:22:09.137Z,30
2018-04-30T06:22:29.877Z,30
2018-04-30T06:22:51.441Z,30
2018-04-30T06:23:12.914Z,30
2018-04-30T06:23:33.557Z,30
2018-04-30T06:23:54.054Z,30
2018-04-30T06:24:14.563Z,30
2018-04-30T06:24:35.098Z,30
2018-04-30T06:24:55.622Z,30
2018-04-30T06:25:16.153Z,30
2018-04-30T06:25:36.685Z,30
2018-04-30T06:25:57.749Z,30
2018-04-30T06:26:18.171Z,30
2018-04-30T06:26:38.911Z,30
2018-04-30T06:26:59.672Z,30
2018-04-30T06:27:20.176Z,30
2018-04-30T06:27:40.769Z,30
2018-04-30T06:28:02.424Z,30
2018-04-30T06:28:23.155Z,30
2018-04-30T06:28:44.274Z,30
2018-04-30T06:29:04.867Z,30
2018-04-30T06:29:25.377Z,30
2018-04-30T06:29:46.036Z,30
2018-04-30T06:30:06.604Z,30
2018-04-30T06:30:27.171Z,30
2018-04-30T06:30:48.239Z,30
2018-04-30T06:31:08.986Z,30
2018-04-30T06:31:29.618Z,30
2018-04-30T06:31:52.352Z,30
2018-04-30T06:32:12.835Z,30
2018-04-30T06:32:33.233Z,30
2018-04-30T06:32:53.614Z,30
2018-04-30T06:33:14.055Z,30
2018-04-30T06:33:34.522Z,30
2018-04-30T06:33:55.010Z,30
2018-04-30T06:34:16.911Z,30
2018-04-30T06:34:39.358Z,30
2018-04-30T06:34:59.857Z,30
2018-04-30T06:35:21.239Z,30
2018-04-30T06:35:42.410Z,25
2018-04-30T06:36:03.258Z,25
2018-04-30T06:36:24.011Z,25
2018-04-30T06:36:44.392Z,25
2018-04-30T06:37:05.853Z,25
2018-04-30T06:37:26.877Z,25
2018-04-30T06:37:48.254Z,25
2018-04-30T06:38:08.701Z,25
2018-04-30T06:38:29.193Z,25
2018-04-30T06:38:49.613Z,25
2018-04-30T06:39:10.159Z,25
2018-04-30T06:39:31.285Z,25
2018-04-30T06:39:52.340Z,25
2018-04-30T06:40:13.358Z,25
2018-04-30T06:40:33.863Z,25
2018-04-30T06:40:54.349Z,25
2018-04-30T06:41:14.802Z,25
2018-04-30T06:41:36.104Z,25
2018-04-30T06:41:56.554Z,25
2018-04-30T06:42:16.906Z,25
2018-04-30T06:42:37.503Z,25
2018-04-30T06:42:57.982Z,25
2018-04-30T06:43:18.425Z,20
2018-04-30T06:43:38.835Z,20
2018-04-30T06:43:59.222Z,20
2018-04-30T06:44:20.856Z,20
2018-04-30T06:44:41.253Z,20
2018-04-30T06:45:02.331Z,20
2018-04-30T06:45:22.741Z,20
2018-04-30T06:45:43.805Z,20
2018-04-30T06:46:04.389Z,20
2018-04-30T06:46:24.804Z,20
2018-04-30T06:46:45.769Z,20
2018-04-30T06:47:07.262Z,20
2018-04-30T06:47:28.018Z,20
2018-04-30T06:47:51.552Z,20
2018-04-30T06:48:12.014Z,20
2018-04-30T06:48:32.683Z,20
2018-04-30T06:48:53.320Z,20
2018-04-30T06:49:13.647Z,20
2018-04-30T06:49:34.786Z,20
2018-04-30T06:49:55.295Z,25
2018-04-30T06:50:15.719Z,25
2018-04-30T06:50:36.193Z,25
2018-04-30T06:50:56.766Z,25
2018-04-30T06:51:17.319Z,25
2018-04-30T06:51:37.973Z,30
2018-04-30T06:51:59.368Z,30
2018-04-30T06:52:19.938Z,35
2018-04-30T06:52:41.254Z,35
2018-04-30T06:53:01.732Z,35
2018-04-30T06:53:22.211Z,35
2018-04-30T06:53:43.058Z,40
2018-04-30T06:54:04.534Z,35
2018-04-30T06:54:25.154Z,40
2018-04-30T06:54:45.555Z,40
2018-04-30T06:55:06.375Z,40
2018-04-30T06:55:26.985Z,40
2018-04-30T06:55:47.474Z,35
2018-04-30T06:56:07.872Z,35
2018-04-30T06:56:28.827Z,35
2018-04-30T06:56:50.311Z,35
2018-04-30T06:57:11.825Z,35
2018-04-30T06:57:32.324Z,35
2018-04-30T06:57:52.785Z,35
2018-04-30T06:58:13.173Z,35
2018-04-30T06:58:33.499Z,35
2018-04-30T06:58:54.785Z,35
2018-04-30T06:59:15.385Z,35
2018-04-30T06:59:35.788Z,35
2018-04-30T06:59:56.303Z,35
2018-04-30T07:00:16.860Z,35
2018-04-30T07:00:37.239Z,35
2018-04-30T07:00:58.291Z,35
2018-04-30T07:01:18.848Z,35
2018-04-30T07:01:39.230Z,35
2018-04-30T07:01:59.566Z,35
2018-04-30T07:02:20.068Z,35
2018-04-30T07:02:41.406Z,40
2018-04-30T07:03:01.965Z,40
2018-04-30T07:03:22.592Z,40
2018-04-30T07:03:43.110Z,40
2018-04-30T07:04:04.881Z,40
2018-04-30T07:04:25.879Z,40
2018-04-30T07:04:46.401Z,40
2018-04-30T07:05:07.022Z,40
2018-04-30T07:05:28.278Z,40
2018-04-30T07:05:50.211Z,40
2018-04-30T07:06:10.667Z,35
2018-04-30T07:06:30.954Z,35
2018-04-30T07:06:51.548Z,40
2018-04-30T07:07:12.109Z,40
2018-04-30T07:07:32.511Z,35
2018-04-30T07:07:53.125Z,40
2018-04-30T07:08:14.313Z,35
2018-04-30T07:08:34.960Z,35
2018-04-30T07:08:55.463Z,35
2018-04-30T07:09:16.233Z,35
2018-04-30T07:09:37.339Z,35
2018-04-30T07:09:58.014Z,35
2018-04-30T07:10:18.343Z,35
2018-04-30T07:10:38.733Z,35
2018-04-30T07:10:59.159Z,35
2018-04-30T07:11:19.540Z,35
2018-04-30T07:11:40.042Z,30
2018-04-30T07:12:00.446Z,30
2018-04-30T07:12:21.412Z,30
2018-04-30T07:12:41.841Z,30
2018-04-30T07:13:03.069Z,30
2018-04-30T07:13:25.423Z,35
2018-04-30T07:13:45.913Z,35
2018-04-30T07:14:06.294Z,35
2018-04-30T07:14:26.774Z,35
2018-04-30T07:14:47.270Z,35
2018-04-30T07:15:07.766Z,35
2018-04-30T07:15:28.394Z,30
2018-04-30T07:15:49.467Z,30
2018-04-30T07:16:10.436Z,35
2018-04-30T07:16:30.979Z,35
2018-04-30T07:16:51.553Z,30
2018-04-30T07:17:12.050Z,30
2018-04-30T07:17:32.520Z,30
2018-04-30T07:17:53.451Z,30
2018-04-30T07:18:14.013Z,30
2018-04-30T07:18:34.447Z,30
2018-04-30T07:18:54.864Z,30
2018-04-30T07:19:16.020Z,30
2018-04-30T07:19:36.453Z,30
2018-04-30T07:19:56.849Z,30
2018-04-30T07:20:17.319Z,30
2018-04-30T07:20:37.839Z,30
2018-04-30T07:20:58.371Z,30
2018-04-30T07:21:19.577Z,35
2018-04-30T07:21:40.090Z,35
2018-04-30T07:22:00.603Z,35
2018-04-30T07:22:21.077Z,30
2018-04-30T07:22:41.505Z,35
2018-04-30T07:23:02.128Z,30
2018-04-30T07:23:23.472Z,30
2018-04-30T07:23:44.166Z,30
2018-04-30T07:24:04.747Z,30
2018-04-30T07:24:27.102Z,30
2018-04-30T07:24:47.687Z,30
2018-04-30T07:25:08.095Z,30
2018-04-30T07:25:28.590Z,30
2018-04-30T07:25:49.113Z,35
2018-04-30T07:26:09.595Z,30
2018-04-30T07:26:30.034Z,35
2018-04-30T07:26:51.543Z,30
2018-04-30T07:27:11.987Z,30
2018-04-30T07:27:32.520Z,30
2018-04-30T07:27:53.275Z,30
2018-04-30T07:28:13.704Z,30
2018-04-30T07:28:34.051Z,30
2018-04-30T07:28:54.761Z,30
2018-04-30T07:29:15.208Z,30
2018-04-30T07:29:35.705Z,30
2018-04-30T07:29:56.503Z,30
2018-04-30T07:30:17.194Z,30
2018-04-30T07:30:38.507Z,30
2018-04-30T07:30:58.986Z,30
2018-04-30T07:31:19.498Z,30
2018-04-30T07:31:40.893Z,30
2018-04-30T07:32:01.884Z,30
2018-04-30T07:32:22.285Z,30
2018-04-30T07:32:43.900Z,30
2018-04-30T07:33:04.429Z,30
2018-04-30T07:33:25.422Z,30
2018-04-30T07:33:45.918Z,30
2018-04-30T07:34:06.550Z,30
2018-04-30T07:34:27.421Z,30
2018-04-30T07:34:48.210Z,30
2018-04-30T07:35:08.697Z,30
2018-04-30T07:35:29.154Z,30
2018-04-30T07:35:49.809Z,30
2018-04-30T07:36:10.624Z,30
2018-04-30T07:36:32.003Z,30
2018-04-30T07:36:52.868Z,30
2018-04-30T07:37:13.322Z,30
2018-04-30T07:37:33.798Z,30
2018-04-30T07:37:54.365Z,30
2018-04-30T07:38:14.953Z,30
2018-04-30T07:38:35.526Z,30
2018-04-30T07:38:56.118Z,35
2018-04-30T07:39:18.488Z,30
2018-04-30T07:39:40.430Z,30
2018-04-30T07:40:01.287Z,30
2018-04-30T07:40:22.508Z,30
2018-04-30T07:40:43.339Z,30
2018-04-30T07:41:04.949Z,30
2018-04-30T07:41:25.569Z,30
2018-04-30T07:41:46.050Z,30
2018-04-30T07:42:06.606Z,30
2018-04-30T07:42:27.509Z,30
2018-04-30T07:42:48.936Z,30
2018-04-30T07:43:09.576Z,30
2018-04-30T07:43:30.037Z,30
2018-04-30T07:43:51.443Z,30
2018-04-30T07:44:11.992Z,35
2018-04-30T07:44:32.840Z,35
2018-04-30T07:44:53.334Z,35
2018-04-30T07:45:13.789Z,35
2018-04-30T07:45:35.006Z,35
2018-04-30T07:45:55.420Z,35
2018-04-30T07:46:15.664Z,35
2018-04-30T07:46:36.131Z,35
2018-04-30T07:46:56.552Z,35
2018-04-30T07:47:16.916Z,35
2018-04-30T07:47:37.359Z,40
2018-04-30T07:47:59.971Z,40
2018-04-30T07:48:21.453Z,45
2018-04-30T07:48:41.867Z,45
2018-04-30T07:49:02.393Z,50
2018-04-30T07:49:22.869Z,50
2018-04-30T07:49:43.232Z,55
2018-04-30T07:50:04.460Z,55
2018-04-30T07:50:24.770Z,60
2018-04-30T07:50:45.105Z,60
2018-04-30T07:51:05.597Z,60
2018-04-30T07:51:26.076Z,60
2018-04-30T07:51:47.458Z,60
2018-04-30T07:52:09.527Z,60
2018-04-30T07:52:30.453Z,60
2018-04-30T07:52:51.000Z,60
2018-04-30T07:53:11.921Z,60
2018-04-30T07:53:32.286Z,60
2018-04-30T07:53:52.743Z,60
2018-04-30T07:54:13.092Z,60
2018-04-30T07:54:33.497Z,60
2018-04-30T07:54:53.841Z,60
2018-04-30T07:55:14.164Z,60
2018-04-30T07:55:35.467Z,60
2018-04-30T07:55:57.523Z,60
2018-04-30T07:56:18.502Z,60
2018-04-30T07:56:38.910Z,60
2018-04-30T07:56:59.520Z,60
2018-04-30T07:57:20.270Z,60
2018-04-30T07:57:40.766Z,60
2018-04-30T07:58:01.158Z,60
2018-04-30T07:58:21.573Z,60
2018-04-30T07:58:41.898Z,55
2018-04-30T07:59:02.264Z,50
2018-04-30T07:59:22.645Z,50
2018-04-30T07:59:42.987Z,55
2018-04-30T08:00:03.566Z,55
2018-04-30T08:00:24.025Z,55
2018-04-30T08:00:44.685Z,50
2018-04-30T08:01:05.135Z,55
2018-04-30T08:01:25.745Z,55
2018-04-30T08:01:46.062Z,55
2018-04-30T08:02:06.468Z,50
2018-04-30T08:02:26.980Z,50
2018-04-30T08:02:47.415Z,50
2018-04-30T08:03:08.070Z,50
2018-04-30T08:03:29.757Z,45
2018-04-30T08:03:50.494Z,45
2018-04-30T08:04:10.957Z,45
2018-04-30T08:04:31.384Z,45
2018-04-30T08:04:51.708Z,40
2018-04-30T08:05:12.206Z,45
2018-04-30T08:05:33.026Z,45
2018-04-30T08:05:55.394Z,45
2018-04-30T08:06:15.847Z,50
2018-04-30T08:06:36.269Z,50
2018-04-30T08:06:56.823Z,50
2018-04-30T08:07:17.233Z,50
2018-04-30T08:07:37.947Z,50
2018-04-30T08:07:58.929Z,50
2018-04-30T08:08:19.314Z,50
2018-04-30T08:08:40.474Z,50
2018-04-30T08:09:01.923Z,50
2018-04-30T08:09:22.420Z,50
2018-04-30T08:09:42.864Z,50
2018-04-30T08:10:03.314Z,50
2018-04-30T08:10:24.375Z,45
2018-04-30T08:10:45.418Z,45
2018-04-30T08:11:06.479Z,45
2018-04-30T08:11:26.893Z,45
2018-04-30T08:11:48.580Z,45
2018-04-30T08:12:09.121Z,45
2018-04-30T08:12:29.535Z,45
2018-04-30T08:12:50.069Z,45
2018-04-30T08:13:10.435Z,45
2018-04-30T08:13:30.865Z,45
2018-04-30T08:13:51.274Z,45
2018-04-30T08:14:13.468Z,45
2018-04-30T08:14:35.322Z,45
2018-04-30T08:14:55.850Z,45
2018-04-30T08:15:16.099Z,45
2018-04-30T08:15:36.521Z,45
2018-04-30T08:15:58.446Z,45
2018-04-30T08:16:18.847Z,45
2018-04-30T08:16:39.428Z,45
2018-04-30T08:16:59.765Z,45
2018-04-30T08:17:20.341Z,45
2018-04-30T08:17:42.441Z,45
2018-04-30T08:18:03.231Z,45
2018-04-30T08:18:23.902Z,45
2018-04-30T08:18:44.355Z,40
2018-04-30T08:19:06.485Z,40
2018-04-30T08:19:26.942Z,40
2018-04-30T08:19:47.973Z,40
2018-04-30T08:20:08.569Z,40
2018-04-30T08:20:29.161Z,40
2018-04-30T08:20:49.707Z,40
2018-04-30T08:21:10.179Z,40
2018-04-30T08:21:30.571Z,40
2018-04-30T08:21:51.021Z,40
2018-04-30T08:22:13.009Z,40
2018-04-30T08:22:33.425Z,40
2018-04-30T08:22:53.741Z,40
2018-04-30T08:23:14.029Z,40
2018-04-30T08:23:34.631Z,40
2018-04-30T08:23:55.220Z,40
2018-04-30T08:24:18.401Z,40
2018-04-30T08:24:38.940Z,40
2018-04-30T08:24:59.276Z,40
2018-04-30T08:25:20.528Z,40
2018-04-30T08:25:41.059Z,40
2018-04-30T08:26:01.340Z,40
2018-04-30T08:26:22.462Z,45
2018-04-30T08:26:43.053Z,45
2018-04-30T08:27:03.690Z,45
2018-04-30T08:27:24.057Z,45
2018-04-30T08:27:44.773Z,45
2018-04-30T08:28:05.497Z,40
2018-04-30T08:28:26.192Z,40
2018-04-30T08:28:46.642Z,40
2018-04-30T08:29:07.994Z,40
2018-04-30T08:29:29.078Z,40
2018-04-30T08:29:49.804Z,40
2018-04-30T08:30:10.446Z,40
2018-04-30T08:30:30.861Z,40
2018-04-30T08:30:51.971Z,40
2018-04-30T08:31:13.017Z,40
2018-04-30T08:31:33.294Z,40
2018-04-30T08:31:53.851Z,40
2018-04-30T08:32:16.027Z,40
2018-04-30T08:32:39.657Z,40
2018-04-30T08:33:00.090Z,40
2018-04-30T08:33:20.644Z,35
2018-04-30T08:33:41.162Z,35
2018-04-30T08:34:01.563Z,35
2018-04-30T08:34:21.941Z,35
2018-04-30T08:34:42.930Z,35
2018-04-30T08:35:04.038Z,40
2018-04-30T08:35:25.354Z,40
2018-04-30T08:35:45.621Z,40
2018-04-30T08:36:06.282Z,40
2018-04-30T08:36:27.471Z,40
2018-04-30T08:36:47.851Z,45
2018-04-30T08:37:09.057Z,45
2018-04-30T08:37:29.594Z,45
2018-04-30T08:37:51.157Z,45
2018-04-30T08:38:11.626Z,45
2018-04-30T08:38:31.987Z,45
2018-04-30T08:38:53.228Z,45
2018-04-30T08:39:13.773Z,45
2018-04-30T08:39:34.265Z,50
2018-04-30T08:39:55.133Z,50
2018-04-30T08:40:15.617Z,55
2018-04-30T08:40:35.959Z,55
2018-04-30T08:40:56.298Z,55
2018-04-30T08:41:17.433Z,60
2018-04-30T08:41:37.741Z,60
2018-04-30T08:41:58.204Z,60
2018-04-30T08:42:18.842Z,65
2018-04-30T08:42:39.362Z,60
2018-04-30T08:43:00.388Z,65
2018-04-30T08:43:21.020Z,60
2018-04-30T08:43:41.460Z,60
2018-04-30T08:44:02.129Z,60
2018-04-30T08:44:22.620Z,60
2018-04-30T08:44:43.109Z,55
2018-04-30T08:45:03.774Z,55
2018-04-30T08:45:24.027Z,55
2018-04-30T08:45:44.245Z,55
2018-04-30T08:46:04.554Z,55
2018-04-30T08:46:25.004Z,55
2018-04-30T08:46:46.035Z,55
2018-04-30T08:47:06.540Z,50
2018-04-30T08:47:27.045Z,50
2018-04-30T08:47:48.051Z,45
2018-04-30T08:48:08.925Z,45
2018-04-30T08:48:29.443Z,45
2018-04-30T08:48:50.621Z,45
2018-04-30T08:49:11.184Z,45
2018-04-30T08:49:32.474Z,45
2018-04-30T08:49:52.920Z,45
2018-04-30T08:50:14.177Z,45
2018-04-30T08:50:34.567Z,45
2018-04-30T08:50:55.134Z,45
2018-04-30T08:51:15.605Z,45
2018-04-30T08:51:36.117Z,45
2018-04-30T08:51:56.494Z,45
2018-04-30T08:52:16.835Z,45
2018-04-30T08:52:37.982Z,45
2018-04-30T08:52:58.361Z,45
2018-04-30T08:53:18.700Z,45
2018-04-30T08:53:40.056Z,40
2018-04-30T08:54:00.362Z,40
2018-04-30T08:54:20.679Z,40
2018-04-30T08:54:40.948Z,40
2018-04-30T08:55:01.351Z,45
2018-04-30T08:55:24.022Z,40
2018-04-30T08:55:44.276Z,40
2018-04-30T08:56:04.814Z,40
2018-04-30T08:56:25.154Z,40
2018-04-30T08:56:45.785Z,40
2018-04-30T08:57:06.438Z,40
2018-04-30T08:57:27.452Z,40
2018-04-30T08:57:48.545Z,40
2018-04-30T08:58:09.049Z,40
2018-04-30T08:58:29.429Z,40
2018-04-30T08:58:49.752Z,40
2018-04-30T08:59:10.134Z,40
2018-04-30T08:59:30.638Z,40
2018-04-30T08:59:52.059Z,45
2018-04-30T09:00:13.075Z,45
2018-04-30T09:00:33.808Z,45
2018-04-30T09:00:55.094Z,45
2018-04-30T09:01:15.805Z,50
2018-04-30T09:01:36.983Z,55
2018-04-30T09:01:57.804Z,50
2018-04-30T09:02:18.317Z,55
2018-04-30T09:02:38.761Z,55
2018-04-30T09:02:59.544Z,50
2018-04-30T09:03:19.994Z,50
2018-04-30T09:03:40.414Z,50
2018-04-30T09:04:02.104Z,50
2018-04-30T09:04:22.445Z,50
2018-04-30T09:04:42.890Z,50
2018-04-30T09:05:04.064Z,50
2018-04-30T09:05:24.816Z,50
2018-04-30T09:05:46.053Z,55
2018-04-30T09:06:06.511Z,50
2018-04-30T09:06:26.984Z,50
2018-04-30T09:06:47.284Z,50
2018-04-30T09:07:07.717Z,55
2018-04-30T09:07:28.136Z,55
2018-04-30T09:07:48.964Z,55
2018-04-30T09:08:09.423Z,60
2018-04-30T09:08:29.906Z,55
2018-04-30T09:08:51.068Z,60
2018-04-30T09:09:13.625Z,55
2018-04-30T09:09:34.181Z,55
2018-04-30T09:09:54.566Z,60
2018-04-30T09:10:14.941Z,60
2018-04-30T09:10:35.325Z,60
2018-04-30T09:10:56.475Z,60
2018-04-30T09:11:18.043Z,65
2018-04-30T09:11:38.588Z,70
2018-04-30T09:11:59.362Z,65
2018-04-30T09:12:19.753Z,75
2018-04-30T09:12:40.287Z,70
2018-04-30T09:13:00.728Z,70
2018-04-30T09:13:21.907Z,70
2018-04-30T09:13:44.073Z,75
2018-04-30T09:14:05.587Z,75
2018-04-30T09:14:26.000Z,75
2018-04-30T09:14:46.536Z,75
2018-04-30T09:15:07.372Z,70
2018-04-30T09:15:27.938Z,70
2018-04-30T09:15:49.021Z,70
2018-04-30T09:16:09.606Z,70
2018-04-30T09:16:30.056Z,70
2018-04-30T09:16:50.514Z,70
2018-04-30T09:17:11.008Z,70
2018-04-30T09:17:31.595Z,70
2018-04-30T09:17:52.664Z,75
2018-04-30T09:18:13.153Z,75
2018-04-30T09:18:33.661Z,75
2018-04-30T09:18:55.500Z,75
2018-04-30T09:19:16.554Z,75
2018-04-30T09:19:37.519Z,75
2018-04-30T09:19:59.129Z,75
2018-04-30T09:20:20.282Z,75
2018-04-30T09:20:42.860Z,75
2018-04-30T09:21:04.961Z,70
2018-04-30T09:21:25.450Z,70
2018-04-30T09:21:46.615Z,70
2018-04-30T09:22:06.986Z,70
2018-04-30T09:22:28.051Z,70
2018-04-30T09:22:48.393Z,70
2018-04-30T09:23:08.780Z,70
2018-04-30T09:23:29.552Z,70
2018-04-30T09:23:50.619Z,70
2018-04-30T09:24:11.575Z,65
2018-04-30T09:24:31.924Z,70
2018-04-30T09:24:52.229Z,70
2018-04-30T09:25:13.576Z,70
2018-04-30T09:25:34.198Z,80
2018-04-30T09:25:54.656Z,80
2018-04-30T09:26:15.144Z,80
2018-04-30T09:26:35.653Z,80
2018-04-30T09:26:56.031Z,70
2018-04-30T09:27:16.576Z,70
2018-04-30T09:27:37.440Z,70
2018-04-30T09:27:58.406Z,75
2018-04-30T09:28:18.911Z,70
2018-04-30T09:28:40.139Z,70
2018-04-30T09:29:01.135Z,65
2018-04-30T09:29:21.737Z,65
2018-04-30T09:29:42.345Z,65
2018-04-30T09:30:02.789Z,65
2018-04-30T09:30:23.215Z,65
2018-04-30T09:30:45.212Z,65
2018-04-30T09:31:06.675Z,65
2018-04-30T09:31:27.518Z,65
2018-04-30T09:31:47.761Z,65
2018-04-30T09:32:08.078Z,65
2018-04-30T09:32:28.906Z,65
2018-04-30T09:32:49.158Z,70
2018-04-30T09:33:09.624Z,70
2018-04-30T09:33:30.012Z,70
2018-04-30T09:33:50.471Z,65
2018-04-30T09:34:11.420Z,65
2018-04-30T09:34:31.608Z,60
2018-04-30T09:34:51.977Z,55
2018-04-30T09:35:12.456Z,55
2018-04-30T09:35:34.555Z,55
2018-04-30T09:35:55.084Z,55
2018-04-30T09:36:15.394Z,55
2018-04-30T09:36:35.844Z,45
2018-04-30T09:36:57.036Z,45
2018-04-30T09:37:17.494Z,45
2018-04-30T09:37:39.273Z,40
2018-04-30T09:38:00.626Z,40
2018-04-30T09:38:22.280Z,40
2018-04-30T09:38:42.747Z,40
2018-04-30T09:39:03.624Z,40
2018-04-30T09:39:24.212Z,40
2018-04-30T09:39:44.742Z,40
2018-04-30T09:40:06.949Z,40
2018-04-30T09:40:27.614Z,40
2018-04-30T09:40:48.624Z,40
2018-04-30T09:41:08.901Z,40
2018-04-30T09:41:30.120Z,40
2018-04-30T09:41:50.605Z,40
2018-04-30T09:42:11.043Z,40
2018-04-30T09:42:31.390Z,40
2018-04-30T09:42:52.740Z,40
2018-04-30T09:43:13.566Z,45
2018-04-30T09:43:33.871Z,45
2018-04-30T09:43:54.230Z,45
2018-04-30T09:44:14.734Z,45
2018-04-30T09:44:35.133Z,50
2018-04-30T09:44:55.413Z,50
2018-04-30T09:45:16.052Z,50
2018-04-30T09:45:36.413Z,50
2018-04-30T09:45:58.120Z,50
2018-04-30T09:46:18.485Z,50
2018-04-30T09:46:39.482Z,50
2018-04-30T09:46:59.775Z,55
2018-04-30T09:47:20.110Z,50
2018-04-30T09:47:42.539Z,55
2018-04-30T09:48:03.640Z,55
2018-04-30T09:48:24.105Z,55
2018-04-30T09:48:44.555Z,55
2018-04-30T09:49:05.560Z,55
2018-04-30T09:49:26.683Z,55
2018-04-30T09:49:48.654Z,55
2018-04-30T09:50:08.921Z,50
